Time;durP1;ratioP1;P1;durP2;ratioP2;P2;SDS_P1;SDS_P2;PMS_P1;PMS_P2;Temp;Humidity;BMP_temperature;BMP_pressure;BME280_temperature;BME280_humidity;BME280_pressure;Samples;Min_cycle;Max_cycle;Signal;HPM_P1;HPM_P2
2022/04/14 00:02:07;;;;;;;8.48;7.40;;;;;;;;;;6131577;23;20018;-84
2022/04/14 00:04:36;;;;;;;6.50;5.90;;;;;;;;;;6161447;23;20016;-84
2022/04/14 00:07:04;;;;;;;8.32;7.55;;;;;;;;;;6126582;23;20028;-84
2022/04/14 00:09:35;;;;;;;10.07;6.78;;;;;;;;;;6131409;23;20028;-84
2022/04/14 00:12:03;;;;;;;15.05;6.97;;;;;;;;;;6111358;23;20024;-85
2022/04/14 00:14:31;;;;;;;7.75;6.47;;;;;;;;;;6104293;23;20492;-84
2022/04/14 00:16:59;;;;;;;8.50;6.18;;;;;;;;;;6161163;23;20018;-85
2022/04/14 00:19:31;;;;;;;10.95;9.63;;;;;;;;;;6149414;23;20425;-84
2022/04/14 00:21:59;;;;;;;;;;;;;;;;;;6157087;23;20013;-84
2022/04/14 00:24:27;;;;;;;7.63;6.70;;;;;;;;;;6160449;23;19923;-84
2022/04/14 00:26:55;;;;;;;9.63;7.40;;;;;;;;;;6150860;23;20603;-85
2022/04/14 00:29:23;;;;;;;6.68;6.03;;;;;;;;;;6158248;23;20025;-85
2022/04/14 00:31:51;;;;;;;7.20;6.50;;;;;;;;;;6161377;23;20472;-84
2022/04/14 00:34:19;;;;;;;6.63;6.03;;;;;;;;;;6154463;23;20472;-84
2022/04/14 00:36:47;;;;;;;10.07;7.93;;;;;;;;;;6159422;23;20021;-84
2022/04/14 00:39:15;;;;;;;14.43;6.82;;;;;;;;;;6149466;23;20029;-76
2022/04/14 00:41:43;;;;;;;11.48;6.50;;;;;;;;;;6156974;23;20022;-76
2022/04/14 00:44:11;;;;;;;9.13;7.45;;;;;;;;;;6160885;23;20021;-75
2022/04/14 00:46:39;;;;;;;10.05;7.93;;;;;;;;;;6153489;23;20357;-84
2022/04/14 00:49:07;;;;;;;8.23;7.00;;;;;;;;;;6159168;23;20362;-85
2022/04/14 00:51:35;;;;;;;11.25;7.20;;;;;;;;;;6161130;23;20024;-84
2022/04/14 00:54:03;;;;;;;12.43;9.30;;;;;;;;;;6155246;23;20465;-85
2022/04/14 00:56:31;;;;;;;14.40;8.43;;;;;;;;;;6160805;23;20013;-84
2022/04/14 00:59:02;;;;;;;7.95;7.25;;;;;;;;;;6153403;23;20021;-84
2022/04/14 01:01:37;;;;;;;8.68;7.13;;;;;;;;;;6127052;23;20017;-84
2022/04/14 01:04:05;;;;;;;10.45;8.77;;;;;;;;;;6077663;23;20029;-84
2022/04/14 01:06:33;;;;;;;12.98;9.27;;;;;;;;;;6079979;23;1113218;-84
2022/04/14 01:09:18;;;;;;;15.88;8.68;;;;;;;;;;6126076;23;20021;-84
2022/04/14 01:11:47;;;;;;;13.20;6.93;;;;;;;;;;6138477;23;20020;-84
2022/04/14 01:14:29;;;;;;;10.82;8.38;;;;;;;;;;6158511;23;20025;-85
2022/04/14 01:16:57;;;;;;;;;;;;;;;;;;6128808;23;20021;-85
2022/04/14 01:19:25;;;;;;;9.70;8.40;;;;;;;;;;6150560;23;19916;-84
2022/04/14 01:22:05;;;;;;;10.20;7.18;;;;;;;;;;6159894;23;20025;-85
2022/04/14 01:24:34;;;;;;;8.75;7.97;;;;;;;;;;6163349;23;20016;-84
2022/04/14 01:27:02;;;;;;;8.70;6.25;;;;;;;;;;6155333;23;20022;-85
2022/04/14 01:29:30;;;;;;;8.48;7.28;;;;;;;;;;6110552;23;20452;-84
2022/04/14 01:31:59;;;;;;;7.15;6.10;;;;;;;;;;6163946;23;20014;-84
2022/04/14 01:34:29;;;;;;;9.25;7.38;;;;;;;;;;6157146;23;20017;-85
2022/04/14 01:36:58;;;;;;;13.47;8.87;;;;;;;;;;6164164;23;20020;-84
2022/04/14 01:39:27;;;;;;;21.65;9.30;;;;;;;;;;6125738;23;20026;-84
2022/04/14 01:41:55;;;;;;;8.88;8.07;;;;;;;;;;6157965;23;20033;-85
2022/04/14 01:44:23;;;;;;;10.43;8.93;;;;;;;;;;6161966;23;20013;-84
2022/04/14 01:46:51;;;;;;;15.07;9.07;;;;;;;;;;6155311;23;20022;-85
2022/04/14 01:49:19;;;;;;;12.48;10.70;;;;;;;;;;6134953;23;20010;-84
2022/04/14 01:51:49;;;;;;;9.43;8.50;;;;;;;;;;6163617;23;20014;-85
2022/04/14 01:54:17;;;;;;;11.65;10.48;;;;;;;;;;6156887;23;20362;-84
2022/04/14 01:56:46;;;;;;;21.63;12.35;;;;;;;;;;6163559;23;20021;-85
2022/04/14 01:59:14;;;;;;;14.35;10.82;;;;;;;;;;6153819;23;20029;-85
2022/04/14 02:01:42;;;;;;;14.77;10.52;;;;;;;;;;6159737;23;20025;-85
2022/04/14 02:04:10;;;;;;;12.07;9.55;;;;;;;;;;6163628;23;20298;-85
2022/04/14 02:06:38;;;;;;;17.40;13.00;;;;;;;;;;6152401;23;20028;-85
2022/04/14 02:09:06;;;;;;;11.63;10.38;;;;;;;;;;6161127;23;20014;-85
2022/04/14 02:11:34;;;;;;;15.30;11.40;;;;;;;;;;6153296;23;20311;-85
2022/04/14 02:14:02;;;;;;;23.75;10.27;;;;;;;;;;6126931;23;20074;-85
2022/04/14 02:16:30;;;;;;;19.50;9.65;;;;;;;;;;6137443;23;20016;-85
2022/04/14 02:18:58;;;;;;;19.33;8.65;;;;;;;;;;6101425;23;20076;-82
2022/04/14 02:21:26;;;;;;;12.88;9.48;;;;;;;;;;6159361;23;20022;-82
2022/04/14 02:23:54;;;;;;;13.82;10.18;;;;;;;;;;6136011;23;20009;-82
2022/04/14 02:26:22;;;;;;;13.30;10.77;;;;;;;;;;6157125;23;20029;-85
2022/04/14 02:28:50;;;;;;;12.38;8.80;;;;;;;;;;6137398;23;20017;-85
2022/04/14 02:31:18;;;;;;;11.70;8.40;;;;;;;;;;6153234;23;20028;-84
2022/04/14 02:33:46;;;;;;;8.50;7.60;;;;;;;;;;6126259;23;20056;-84
2022/04/14 02:36:14;;;;;;;8.90;7.95;;;;;;;;;;6078322;23;20018;-84
2022/04/14 02:38:43;;;;;;;8.82;7.95;;;;;;;;;;6152660;23;20661;-85
2022/04/14 02:41:11;;;;;;;13.07;7.50;;;;;;;;;;6161929;23;20017;-84
2022/04/14 02:43:39;;;;;;;9.70;7.45;;;;;;;;;;6161650;23;20021;-84
2022/04/14 02:46:07;;;;;;;11.80;7.90;;;;;;;;;;6153466;23;20341;-85
2022/04/14 02:48:36;;;;;;;10.50;9.45;;;;;;;;;;6136298;23;20017;-85
2022/04/14 02:51:04;;;;;;;7.63;6.90;;;;;;;;;;6153769;23;20029;-85
2022/04/14 02:53:31;;;;;;;8.80;7.68;;;;;;;;;;6126234;23;20028;-85
2022/04/14 02:56:21;;;;;;;10.55;6.53;;;;;;;;;;6164021;23;20010;-84
2022/04/14 02:59:49;;;;;;;9.80;8.63;;;;;;;;;;6135601;23;20026;-85
2022/04/14 03:03:24;;;;;;;8.88;6.90;;;;;;;;;;6130032;23;20033;-84
2022/04/14 03:06:43;;;;;;;13.95;9.43;;;;;;;;;;6119452;23;20036;-85
2022/04/14 03:10:08;;;;;;;9.65;8.68;;;;;;;;;;6071467;23;20010;-85
2022/04/14 03:13:13;;;;;;;8.93;7.88;;;;;;;;;;6131832;23;20028;-85
2022/04/14 03:15:57;;;;;;;13.40;8.00;;;;;;;;;;6122177;23;20018;-85
2022/04/14 03:18:26;;;;;;;14.45;8.75;;;;;;;;;;6078517;23;20029;-84
2022/04/14 03:20:53;;;;;;;9.30;8.05;;;;;;;;;;6096698;23;20018;-85
2022/04/14 03:23:23;;;;;;;10.57;9.40;;;;;;;;;;6120537;23;20026;-84
2022/04/14 03:26:12;;;;;;;14.20;8.63;;;;;;;;;;6128829;23;20022;-84
2022/04/14 03:29:14;;;;;;;13.45;8.65;;;;;;;;;;6130944;23;20018;-84
2022/04/14 03:31:42;;;;;;;13.55;8.52;;;;;;;;;;6097664;23;20060;-84
2022/04/14 03:34:10;;;;;;;13.38;9.88;;;;;;;;;;6127865;23;20350;-85
2022/04/14 03:36:38;;;;;;;11.23;7.97;;;;;;;;;;6131795;23;20014;-84
2022/04/14 03:39:06;;;;;;;10.15;8.13;;;;;;;;;;6121461;23;20026;-85
2022/04/14 03:41:34;;;;;;;14.63;10.45;;;;;;;;;;6130084;23;20020;-84
2022/04/14 03:44:02;;;;;;;10.05;8.20;;;;;;;;;;6131793;23;20397;-84
2022/04/14 03:46:31;;;;;;;10.10;9.20;;;;;;;;;;6072770;23;20021;-85
2022/04/14 03:48:59;;;;;;;10.65;9.27;;;;;;;;;;6072587;23;20335;-85
2022/04/14 03:51:27;;;;;;;13.05;8.70;;;;;;;;;;6131462;23;20021;-85
2022/04/14 03:53:55;;;;;;;18.02;10.48;;;;;;;;;;6121847;23;20538;-85
2022/04/14 03:56:23;;;;;;;9.68;8.68;;;;;;;;;;6133088;23;20018;-85
2022/04/14 03:58:51;;;;;;;8.63;7.72;;;;;;;;;;6124086;23;20041;-85
2022/04/14 04:01:19;;;;;;;11.00;7.80;;;;;;;;;;6131062;23;20030;-85
2022/04/14 04:03:48;;;;;;;9.70;7.82;;;;;;;;;;6071895;23;20028;-85
2022/04/14 04:06:16;;;;;;;8.27;7.35;;;;;;;;;;6048191;23;20029;-85
2022/04/14 04:08:44;;;;;;;10.68;9.02;;;;;;;;;;6131782;23;20010;-85
2022/04/14 04:11:12;;;;;;;11.88;9.63;;;;;;;;;;6122865;23;20042;-83
2022/04/14 04:13:41;;;;;;;13.90;10.55;;;;;;;;;;6120501;23;20018;-82
2022/04/14 04:16:10;;;;;;;11.82;9.93;;;;;;;;;;6121125;23;20014;-83
2022/04/14 04:18:39;;;;;;;14.18;9.25;;;;;;;;;;6124716;23;20030;-85
2022/04/14 04:21:07;;;;;;;14.68;10.85;;;;;;;;;;6131798;23;20314;-84
2022/04/14 04:23:35;;;;;;;27.98;11.07;;;;;;;;;;6130736;23;20013;-85
2022/04/14 04:26:03;;;;;;;13.10;8.13;;;;;;;;;;6127872;23;20034;-85
2022/04/14 04:28:31;;;;;;;13.23;10.18;;;;;;;;;;6132328;23;20018;-85
2022/04/14 04:30:59;;;;;;;13.00;9.95;;;;;;;;;;6123781;23;20349;-85
2022/04/14 04:33:27;;;;;;;12.43;9.18;;;;;;;;;;6126659;23;20029;-86
2022/04/14 04:35:55;;;;;;;10.10;8.68;;;;;;;;;;6131617;23;20014;-85
2022/04/14 04:38:23;;;;;;;11.68;9.82;;;;;;;;;;6103220;23;20029;-85
2022/04/14 04:40:51;;;;;;;15.85;11.05;;;;;;;;;;6121179;23;20349;-85
2022/04/14 04:43:19;;;;;;;12.35;9.43;;;;;;;;;;6122544;23;20068;-85
2022/04/14 04:45:47;;;;;;;16.25;10.00;;;;;;;;;;6128435;23;20390;-85
2022/04/14 04:48:15;;;;;;;16.02;9.38;;;;;;;;;;6132256;23;20330;-85
2022/04/14 04:50:43;;;;;;;14.48;8.52;;;;;;;;;;6124850;23;20335;-85
2022/04/14 04:53:11;;;;;;;15.38;9.52;;;;;;;;;;6129216;23;20383;-85
2022/04/14 04:55:40;;;;;;;11.77;7.95;;;;;;;;;;6121685;23;20014;-85
2022/04/14 04:58:08;;;;;;;10.57;9.13;;;;;;;;;;6078466;23;20018;-85
2022/04/14 05:00:36;;;;;;;13.25;9.38;;;;;;;;;;6123245;23;20018;-85
2022/04/14 05:03:10;;;;;;;13.68;9.70;;;;;;;;;;6123374;23;20029;-85
2022/04/14 05:05:38;;;;;;;13.07;8.32;;;;;;;;;;6104632;23;20018;-85
2022/04/14 05:08:07;;;;;;;11.75;8.02;;;;;;;;;;6120282;23;20018;-85
2022/04/14 05:10:35;;;;;;;12.38;8.70;;;;;;;;;;6120304;23;20075;-85
2022/04/14 05:13:04;;;;;;;10.30;8.48;;;;;;;;;;6120423;23;20026;-85
2022/04/14 05:15:33;;;;;;;11.10;8.70;;;;;;;;;;6131240;23;20010;-85
2022/04/14 05:18:01;;;;;;;9.25;8.07;;;;;;;;;;6101799;23;20029;-85
2022/04/14 05:20:29;;;;;;;10.18;8.65;;;;;;;;;;6132325;23;20030;-85
2022/04/14 05:22:57;;;;;;;17.67;9.77;;;;;;;;;;6097539;23;20022;-85
2022/04/14 05:25:26;;;;;;;13.75;8.27;;;;;;;;;;6128302;23;20458;-85
2022/04/14 05:27:54;;;;;;;9.50;7.95;;;;;;;;;;6132280;23;20330;-85
2022/04/14 05:30:22;;;;;;;13.00;10.25;;;;;;;;;;6126540;23;20037;-85
2022/04/14 05:32:50;;;;;;;14.35;9.43;;;;;;;;;;6132165;23;20017;-79
2022/04/14 05:35:18;;;;;;;11.30;7.43;;;;;;;;;;6122494;23;20469;-80
2022/04/14 05:37:46;;;;;;;15.35;10.38;;;;;;;;;;6118270;23;20771;-80
2022/04/14 05:40:14;;;;;;;9.18;8.23;;;;;;;;;;6130517;23;20308;-80
2022/04/14 05:42:49;;;;;;;11.43;10.07;;;;;;;;;;6125027;23;20042;-80
2022/04/14 05:45:17;;;;;;;20.50;8.73;;;;;;;;;;6130947;23;20021;-80
2022/04/14 05:47:45;;;;;;;16.90;9.68;;;;;;;;;;6133665;23;20010;-80
2022/04/14 05:50:13;;;;;;;10.68;7.95;;;;;;;;;;6121403;23;20473;-80
2022/04/14 05:52:42;;;;;;;11.45;7.20;;;;;;;;;;6133710;23;20021;-79
2022/04/14 05:55:10;;;;;;;9.98;8.05;;;;;;;;;;6122898;23;20033;-78
2022/04/14 05:57:38;;;;;;;13.55;8.35;;;;;;;;;;6122035;23;20572;-78
2022/04/14 06:00:06;;;;;;;7.38;6.72;;;;;;;;;;6132962;23;20014;-78
2022/04/14 06:02:34;;;;;;;7.47;6.65;;;;;;;;;;6097662;23;20030;-78
2022/04/14 06:05:02;;;;;;;10.23;8.82;;;;;;;;;;6129621;23;20022;-78
2022/04/14 06:07:30;;;;;;;17.17;7.35;;;;;;;;;;6133427;23;20028;-78
2022/04/14 06:09:58;;;;;;;20.65;8.48;;;;;;;;;;6128560;23;20420;-78
2022/04/14 06:12:27;;;;;;;8.23;6.50;;;;;;;;;;6049927;23;20438;-78
2022/04/14 06:14:55;;;;;;;11.32;6.55;;;;;;;;;;6125220;23;20046;-79
2022/04/14 06:17:24;;;;;;;10.45;7.05;;;;;;;;;;6121217;23;20025;-79
2022/04/14 06:19:52;;;;;;;9.20;6.82;;;;;;;;;;6131340;23;20010;-75
2022/04/14 06:22:20;;;;;;;10.52;7.85;;;;;;;;;;6097614;23;20030;-74
2022/04/14 06:24:49;;;;;;;9.52;7.30;;;;;;;;;;6131224;23;20021;-78
2022/04/14 06:27:17;;;;;;;8.93;8.02;;;;;;;;;;6123811;23;20026;-78
2022/04/14 06:29:45;;;;;;;10.48;7.07;;;;;;;;;;6096188;23;20022;-79
2022/04/14 06:32:15;;;;;;;8.93;7.10;;;;;;;;;;6127106;23;20013;-79
2022/04/14 06:34:54;;;;;;;6.85;6.15;;;;;;;;;;6122303;23;20021;-80
2022/04/14 06:37:33;;;;;;;11.52;8.65;;;;;;;;;;6094923;23;20346;-79
2022/04/14 06:40:12;;;;;;;11.77;6.90;;;;;;;;;;6121225;23;20021;-79
2022/04/14 06:43:02;;;;;;;9.45;7.85;;;;;;;;;;6100585;23;20105;-79
2022/04/14 06:45:32;;;;;;;8.87;6.43;;;;;;;;;;6127257;23;20021;-79
2022/04/14 06:48:01;;;;;;;9.57;7.30;;;;;;;;;;6131735;23;20338;-79
2022/04/14 06:50:32;;;;;;;8.85;7.38;;;;;;;;;;6071750;23;20029;-78
2022/04/14 06:53:00;;;;;;;18.48;7.85;;;;;;;;;;6129787;23;20021;-79
2022/04/14 06:55:29;;;;;;;7.30;6.45;;;;;;;;;;6100060;23;20523;-79
2022/04/14 06:57:58;;;;;;;11.70;6.25;;;;;;;;;;6128006;23;20449;-79
2022/04/14 07:00:27;;;;;;;14.00;7.40;;;;;;;;;;6120805;23;20455;-80
2022/04/14 07:02:57;;;;;;;8.43;7.13;;;;;;;;;;6122475;23;20036;-80
2022/04/14 07:05:26;;;;;;;10.52;8.23;;;;;;;;;;6138417;23;20036;-80
2022/04/14 07:07:54;;;;;;;8.77;7.18;;;;;;;;;;6161841;23;20184;-80
2022/04/14 07:10:27;;;;;;;7.97;7.07;;;;;;;;;;6154522;23;20033;-81
2022/04/14 07:12:58;;;;;;;8.38;7.13;;;;;;;;;;6135414;23;20013;-80
2022/04/14 07:15:27;;;;;;;10.75;8.38;;;;;;;;;;6100450;23;20028;-79
2022/04/14 07:17:55;;;;;;;9.00;7.70;;;;;;;;;;6131780;23;20022;-82
2022/04/14 07:20:29;;;;;;;9.93;7.78;;;;;;;;;;6126110;23;20026;-80
2022/04/14 07:22:59;;;;;;;11.68;8.10;;;;;;;;;;6076506;23;20033;-81
2022/04/14 07:25:33;;;;;;;8.32;6.97;;;;;;;;;;6151507;23;20452;-81
2022/04/14 07:28:04;;;;;;;14.00;7.57;;;;;;;;;;6162310;23;20037;-80
2022/04/14 07:30:35;;;;;;;8.80;7.85;;;;;;;;;;6155528;23;20044;-81
2022/04/14 07:33:08;;;;;;;8.90;6.88;;;;;;;;;;6135204;23;20013;-81
2022/04/14 07:35:37;;;;;;;11.50;6.45;;;;;;;;;;6161757;23;20619;-80
2022/04/14 07:38:06;;;;;;;9.88;8.23;;;;;;;;;;6156182;23;20732;-81
2022/04/14 07:40:40;;;;;;;11.38;7.80;;;;;;;;;;6161625;23;20021;-82
2022/04/14 07:43:10;;;;;;;8.02;6.78;;;;;;;;;;6124444;23;20041;-81
2022/04/14 07:45:46;;;;;;;11.07;7.88;;;;;;;;;;6158677;23;20024;-81
2022/04/14 07:48:26;;;;;;;9.93;7.20;;;;;;;;;;6135095;23;20021;-82
2022/04/14 07:50:55;;;;;;;11.98;8.60;;;;;;;;;;6100963;23;20037;-80
2022/04/14 07:53:24;;;;;;;13.15;9.32;;;;;;;;;;6158640;23;20777;-82
2022/04/14 07:55:52;;;;;;;10.18;8.32;;;;;;;;;;6101771;23;20360;-78
2022/04/14 07:58:21;;;;;;;6.93;6.32;;;;;;;;;;6155267;23;20337;-81
2022/04/14 08:00:52;;;;;;;12.70;10.55;;;;;;;;;;6161700;23;20349;-80
2022/04/14 08:03:20;;;;;;;10.98;9.52;;;;;;;;;;6151896;23;20025;-80
2022/04/14 08:05:49;;;;;;;11.30;10.15;;;;;;;;;;6124430;23;20018;-79
2022/04/14 08:08:18;;;;;;;13.18;9.40;;;;;;;;;;6134997;23;20306;-81
2022/04/14 08:10:48;;;;;;;10.93;8.13;;;;;;;;;;6154717;23;20022;-81
2022/04/14 08:13:16;;;;;;;10.25;8.13;;;;;;;;;;6125521;23;20504;-80
2022/04/14 08:15:45;;;;;;;10.05;8.98;;;;;;;;;;6078315;23;20017;-83
2022/04/14 08:18:13;;;;;;;10.25;9.23;;;;;;;;;;6130100;23;20021;-77
2022/04/14 08:20:41;;;;;;;11.38;9.40;;;;;;;;;;6162109;23;20020;-79
2022/04/14 08:23:14;;;;;;;11.88;9.93;;;;;;;;;;6151125;23;20037;-79
2022/04/14 08:26:04;;;;;;;12.15;10.20;;;;;;;;;;6157222;23;20028;-79
2022/04/14 08:28:43;;;;;;;9.57;7.90;;;;;;;;;;6161795;23;20314;-80
2022/04/14 08:31:12;;;;;;;10.50;8.18;;;;;;;;;;6126277;23;20025;-79
2022/04/14 08:33:40;;;;;;;14.88;8.23;;;;;;;;;;6124473;23;20033;-80
2022/04/14 08:36:12;;;;;;;11.88;9.27;;;;;;;;;;6125989;23;20464;-80
2022/04/14 08:38:45;;;;;;;13.05;10.68;;;;;;;;;;6126807;23;20449;-79
2022/04/14 08:41:18;;;;;;;9.77;8.10;;;;;;;;;;6100723;23;20018;-79
2022/04/14 08:44:01;;;;;;;13.75;8.95;;;;;;;;;;6162196;23;20329;-80
2022/04/14 08:46:30;;;;;;;9.65;8.70;;;;;;;;;;6155338;23;20021;-84
2022/04/14 08:48:59;;;;;;;15.43;10.25;;;;;;;;;;6161456;23;20009;-81
2022/04/14 08:51:28;;;;;;;10.90;8.50;;;;;;;;;;6124865;23;20021;-83
2022/04/14 08:53:56;;;;;;;13.88;9.80;;;;;;;;;;6154103;23;20018;-83
2022/04/14 08:56:25;;;;;;;12.10;9.68;;;;;;;;;;6125808;23;20029;-82
2022/04/14 08:58:55;;;;;;;10.38;9.32;;;;;;;;;;6127026;23;20032;-79
2022/04/14 09:01:39;;;;;;;14.80;9.27;;;;;;;;;;6159803;23;20487;-79
2022/04/14 09:04:57;;;;;;;16.50;9.18;;;;;;;;;;6141225;23;20025;-80
2022/04/14 09:08:25;;;;;;;9.82;8.38;;;;;;;;;;6022676;23;20030;-78
2022/04/14 09:11:44;;;;;;;;;;;;;;;;;;6039318;23;20027;-79
2022/04/14 09:15:11;;;;;;;11.38;9.60;;;;;;;;;;6036422;23;20317;-79
2022/04/14 09:18:26;;;;;;;24.25;9.65;;;;;;;;;;6040876;23;20044;-80
2022/04/14 09:22:07;;;;;;;14.88;7.88;;;;;;;;;;6036907;23;20015;-81
2022/04/14 09:25:00;;;;;;;13.98;8.35;;;;;;;;;;6070762;23;20183;-80
2022/04/14 09:27:29;;;;;;;9.35;7.93;;;;;;;;;;6071903;23;20605;-80
2022/04/14 09:29:58;;;;;;;20.77;8.88;;;;;;;;;;6066686;23;20026;-79
2022/04/14 09:32:30;;;;;;;17.27;8.02;;;;;;;;;;6071668;23;20371;-81
2022/04/14 09:35:06;;;;;;;10.05;7.40;;;;;;;;;;6013218;23;20019;-80
2022/04/14 09:37:34;;;;;;;12.32;8.35;;;;;;;;;;6068896;23;20023;-79
2022/04/14 09:40:11;;;;;;;12.40;7.65;;;;;;;;;;6115008;23;20018;-80
2022/04/14 09:42:40;;;;;;;8.13;6.88;;;;;;;;;;6126248;23;20021;-80
2022/04/14 09:45:33;;;;;;;9.90;9.00;;;;;;;;;;6131504;23;20021;-80
2022/04/14 09:48:03;;;;;;;11.52;10.02;;;;;;;;;;6131894;23;20010;-77
2022/04/14 09:50:35;;;;;;;10.25;7.45;;;;;;;;;;6126824;23;20354;-80
2022/04/14 09:53:05;;;;;;;14.63;7.80;;;;;;;;;;6095336;23;20033;-79
2022/04/14 09:55:34;;;;;;;12.97;8.23;;;;;;;;;;6132836;23;20029;-79
2022/04/14 09:58:18;;;;;;;22.38;6.75;;;;;;;;;;6128031;23;20022;-78
2022/04/14 10:00:47;;;;;;;11.35;7.28;;;;;;;;;;6131439;23;20018;-79
2022/04/14 10:03:15;;;;;;;13.45;8.20;;;;;;;;;;6121699;23;20474;-81
2022/04/14 10:05:45;;;;;;;10.57;8.57;;;;;;;;;;6139522;23;20032;-81
2022/04/14 10:08:13;;;;;;;10.35;8.07;;;;;;;;;;6135451;23;20028;-80
2022/04/14 10:10:42;;;;;;;9.07;7.43;;;;;;;;;;6127940;23;20034;-80
2022/04/14 10:13:11;;;;;;;12.90;7.57;;;;;;;;;;6135583;23;20044;-75
2022/04/14 10:15:44;;;;;;;9.55;7.15;;;;;;;;;;6162154;23;20013;-75
2022/04/14 10:18:13;;;;;;;10.05;6.53;;;;;;;;;;6100570;23;20036;-74
2022/04/14 10:20:42;;;;;;;8.93;6.10;;;;;;;;;;6162662;23;20357;-77
2022/04/14 10:23:11;;;;;;;9.98;5.95;;;;;;;;;;6125526;23;20467;-74
2022/04/14 10:25:39;;;;;;;16.23;8.25;;;;;;;;;;6124851;23;20025;-75
2022/04/14 10:28:14;;;;;;;9.85;7.47;;;;;;;;;;6161502;23;20020;-75
2022/04/14 10:30:46;;;;;;;9.07;6.80;;;;;;;;;;6155589;23;20036;-74
2022/04/14 10:33:20;;;;;;;7.25;6.45;;;;;;;;;;6159728;23;20037;-75
2022/04/14 10:35:51;;;;;;;8.88;6.07;;;;;;;;;;6126154;23;20021;-74
2022/04/14 10:38:21;;;;;;;11.88;8.20;;;;;;;;;;6155593;23;20029;-75
2022/04/14 10:40:57;;;;;;;10.38;8.05;;;;;;;;;;6162898;23;20667;-75
2022/04/14 10:43:25;;;;;;;10.68;7.32;;;;;;;;;;6152048;23;20027;-75
2022/04/14 10:45:58;;;;;;;7.57;6.68;;;;;;;;;;6158533;23;20017;-84
2022/04/14 10:48:27;;;;;;;20.88;8.88;;;;;;;;;;6111813;23;20025;-72
2022/04/14 10:51:13;;;;;;;9.23;6.35;;;;;;;;;;6154644;23;20029;-72
2022/04/14 10:53:51;;;;;;;11.07;6.90;;;;;;;;;;6125208;23;20025;-72
2022/04/14 10:56:34;;;;;;;9.70;6.90;;;;;;;;;;6162328;23;20475;-72
2022/04/14 10:59:03;;;;;;;6.57;5.97;;;;;;;;;;6127605;23;20029;-71
2022/04/14 11:01:46;;;;;;;10.40;6.25;;;;;;;;;;6126032;23;20036;-72
2022/04/14 11:04:24;;;;;;;9.23;4.88;;;;;;;;;;6160783;23;20441;-71
2022/04/14 11:07:11;;;;;;;13.35;7.47;;;;;;;;;;6153169;23;20032;-72
2022/04/14 11:09:42;;;;;;;9.75;6.88;;;;;;;;;;6158352;23;20356;-71
2022/04/14 11:12:26;;;;;;;17.67;6.88;;;;;;;;;;6162884;23;20017;-71
2022/04/14 11:14:56;;;;;;;7.78;6.45;;;;;;;;;;6154405;23;20033;-72
2022/04/14 11:17:48;;;;;;;8.52;7.30;;;;;;;;;;6160313;23;20032;-72
2022/04/14 11:20:16;;;;;;;10.13;6.45;;;;;;;;;;6136640;23;20018;-71
2022/04/14 11:23:03;;;;;;;8.15;5.93;;;;;;;;;;6154253;23;20025;-71
2022/04/14 11:25:41;;;;;;;10.68;8.10;;;;;;;;;;6159166;23;20552;-73
2022/04/14 11:28:33;;;;;;;6.78;5.18;;;;;;;;;;6161927;23;20025;-71
2022/04/14 11:31:13;;;;;;;8.38;7.15;;;;;;;;;;6145729;23;20052;-72
2022/04/14 11:33:48;;;;;;;6.00;4.70;;;;;;;;;;6158710;23;20029;-71
2022/04/14 11:36:16;;;;;;;8.98;6.97;;;;;;;;;;6162584;23;20256;-70
2022/04/14 11:39:03;;;;;;;15.60;7.28;;;;;;;;;;6152971;23;20353;-71
2022/04/14 11:41:32;;;;;;;7.85;6.40;;;;;;;;;;6158755;23;20048;-70
2022/04/14 11:44:01;;;;;;;8.32;6.38;;;;;;;;;;6162556;23;20333;-71
2022/04/14 11:46:30;;;;;;;8.48;7.53;;;;;;;;;;6155553;23;20025;-71
2022/04/14 11:49:01;;;;;;;8.20;6.88;;;;;;;;;;6161915;23;20010;-71
2022/04/14 11:51:29;;;;;;;15.27;8.90;;;;;;;;;;6151384;23;20025;-71
2022/04/14 11:53:57;;;;;;;8.25;5.28;;;;;;;;;;6157086;23;20036;-71
2022/04/14 11:56:50;;;;;;;7.78;6.85;;;;;;;;;;6160447;23;20337;-71
2022/04/14 11:59:31;;;;;;;10.82;6.18;;;;;;;;;;6151567;23;20029;-71
2022/04/14 12:01:59;;;;;;;;;;;;;;;;;;6158016;23;20036;-73
2022/04/14 12:04:27;;;;;;;13.05;6.90;;;;;;;;;;6160451;23;19928;-71
2022/04/14 12:06:56;;;;;;;9.38;6.72;;;;;;;;;;6152748;23;20025;-72
2022/04/14 12:09:24;;;;;;;9.48;7.55;;;;;;;;;;6158525;23;20033;-71
2022/04/14 12:11:53;;;;;;;10.45;5.68;;;;;;;;;;6125805;23;20040;-71
2022/04/14 12:14:21;;;;;;;7.25;6.38;;;;;;;;;;6156079;23;20037;-75
2022/04/14 12:16:53;;;;;;;8.23;5.93;;;;;;;;;;6158462;23;20357;-77
2022/04/14 12:19:21;;;;;;;7.95;7.03;;;;;;;;;;6125252;23;20025;-76
2022/04/14 12:21:59;;;;;;;7.20;6.50;;;;;;;;;;6156317;23;20025;-76
2022/04/14 12:24:27;;;;;;;10.60;7.03;;;;;;;;;;6124388;23;20021;-78
2022/04/14 12:26:55;;;;;;;7.55;5.28;;;;;;;;;;6125410;23;20028;-79
2022/04/14 12:29:24;;;;;;;7.45;6.43;;;;;;;;;;6124510;23;20026;-78
2022/04/14 12:32:08;;;;;;;10.02;6.50;;;;;;;;;;6152415;23;20014;-78
2022/04/14 12:34:40;;;;;;;10.55;7.82;;;;;;;;;;6154676;23;20380;-77
2022/04/14 12:37:12;;;;;;;9.63;7.40;;;;;;;;;;6160800;23;20020;-78
2022/04/14 12:40:13;;;;;;;8.10;6.72;;;;;;;;;;6161144;23;20021;-78
2022/04/14 12:42:42;;;;;;;7.57;6.80;;;;;;;;;;6119751;23;20025;-78
2022/04/14 12:45:15;;;;;;;15.75;9.35;;;;;;;;;;6160738;23;20620;-78
2022/04/14 12:47:43;;;;;;;18.73;8.27;;;;;;;;;;6161875;23;20021;-78
2022/04/14 12:50:13;;;;;;;7.10;6.50;;;;;;;;;;6156471;23;20393;-78
2022/04/14 12:52:46;;;;;;;17.80;9.10;;;;;;;;;;6161623;23;20021;-76
2022/04/14 12:55:21;;;;;;;18.70;10.00;;;;;;;;;;6152108;23;20025;-77
2022/04/14 12:57:50;;;;;;;15.55;10.00;;;;;;;;;;6159655;23;20345;-75
2022/04/14 13:00:18;;;;;;;12.82;9.18;;;;;;;;;;6138286;23;20040;-76
2022/04/14 13:03:00;;;;;;;8.48;7.28;;;;;;;;;;6156186;23;20025;-76
2022/04/14 13:05:28;;;;;;;11.75;8.82;;;;;;;;;;6160037;23;20021;-76
2022/04/14 13:07:57;;;;;;;9.25;8.20;;;;;;;;;;6163848;23;20028;-76
2022/04/14 13:10:35;;;;;;;8.80;8.02;;;;;;;;;;6157498;23;20025;-76
2022/04/14 13:13:03;;;;;;;11.00;9.93;;;;;;;;;;6163072;23;20021;-76
2022/04/14 13:15:31;;;;;;;11.80;8.95;;;;;;;;;;6163812;23;20014;-77
2022/04/14 13:18:01;;;;;;;11.23;8.07;;;;;;;;;;6158413;23;20028;-76
2022/04/14 13:20:37;;;;;;;9.68;8.80;;;;;;;;;;6163822;23;20009;-77
2022/04/14 13:23:09;;;;;;;9.90;8.98;;;;;;;;;;6153726;23;20356;-76
2022/04/14 13:25:40;;;;;;;9.07;8.27;;;;;;;;;;6160779;23;20024;-77
2022/04/14 13:28:08;;;;;;;8.60;7.38;;;;;;;;;;6163498;23;20017;-79
2022/04/14 13:30:37;;;;;;;11.88;6.63;;;;;;;;;;6126760;23;20033;-78
2022/04/14 13:33:05;;;;;;;11.20;9.88;;;;;;;;;;6136394;23;20017;-77
2022/04/14 13:35:34;;;;;;;9.43;8.45;;;;;;;;;;6162205;23;20020;-77
2022/04/14 13:38:02;;;;;;;15.23;9.57;;;;;;;;;;6101456;23;20029;-77
2022/04/14 13:40:31;;;;;;;18.33;9.52;;;;;;;;;;6163808;23;20013;-78
2022/04/14 13:42:59;;;;;;;10.98;7.93;;;;;;;;;;6102449;23;20028;-77
2022/04/14 13:45:27;;;;;;;15.18;7.88;;;;;;;;;;6161064;23;20036;-77
2022/04/14 13:47:55;;;;;;;10.57;7.40;;;;;;;;;;6126908;23;20032;-76
2022/04/14 13:50:24;;;;;;;16.17;11.65;;;;;;;;;;6126789;23;20021;-76
2022/04/14 13:52:52;;;;;;;21.75;10.55;;;;;;;;;;6163239;23;20474;-79
2022/04/14 13:55:22;;;;;;;11.35;8.35;;;;;;;;;;6101892;23;20030;-76
2022/04/14 13:57:50;;;;;;;10.03;9.07;;;;;;;;;;6132928;23;20032;-75
2022/04/14 14:00:18;;;;;;;8.00;6.68;;;;;;;;;;6163550;23;20565;-77
2022/04/14 14:02:46;;;;;;;11.85;7.35;;;;;;;;;;6155418;23;20037;-80
2022/04/14 14:05:15;;;;;;;9.30;8.25;;;;;;;;;;6160395;23;20032;-80
2022/04/14 14:07:44;;;;;;;10.95;7.78;;;;;;;;;;6152584;23;20025;-79
2022/04/14 14:10:12;;;;;;;10.30;7.18;;;;;;;;;;6157190;23;20025;-79
2022/04/14 14:12:41;;;;;;;14.35;9.93;;;;;;;;;;6163495;23;20016;-78
2022/04/14 14:15:09;;;;;;;9.93;8.38;;;;;;;;;;6154007;23;20041;-80
2022/04/14 14:17:38;;;;;;;10.73;8.45;;;;;;;;;;6133811;23;20032;-80
2022/04/14 14:20:08;;;;;;;9.88;8.18;;;;;;;;;;6112996;23;20017;-80
2022/04/14 14:22:36;;;;;;;9.60;6.63;;;;;;;;;;6129074;23;20025;-80
2022/04/14 14:25:04;;;;;;;9.13;8.10;;;;;;;;;;6135606;23;20017;-81
2022/04/14 14:27:34;;;;;;;13.85;7.70;;;;;;;;;;6136481;23;20013;-80
2022/04/14 14:30:03;;;;;;;9.77;6.97;;;;;;;;;;6158134;23;20017;-80
2022/04/14 14:32:32;;;;;;;8.48;6.43;;;;;;;;;;6163127;23;20013;-79
2022/04/14 14:35:00;;;;;;;9.32;7.78;;;;;;;;;;6154050;23;20029;-79
2022/04/14 14:37:28;;;;;;;9.50;7.93;;;;;;;;;;6133814;23;20032;-79
2022/04/14 14:39:56;;;;;;;15.40;9.30;;;;;;;;;;6162206;23;20024;-79
2022/04/14 14:42:24;;;;;;;15.50;8.38;;;;;;;;;;6130990;23;20060;-79
2022/04/14 14:44:52;;;;;;;9.45;7.40;;;;;;;;;;6163242;23;20014;-79
2022/04/14 14:47:20;;;;;;;7.57;6.63;;;;;;;;;;6153225;23;20031;-81
2022/04/14 14:49:48;;;;;;;9.57;6.65;;;;;;;;;;6158471;23;20017;-79
2022/04/14 14:52:16;;;;;;;10.00;9.10;;;;;;;;;;6153071;23;20018;-80
2022/04/14 14:54:44;;;;;;;11.90;8.30;;;;;;;;;;6125411;23;20028;-80
2022/04/14 14:57:12;;;;;;;9.77;8.82;;;;;;;;;;6161651;23;20020;-80
2022/04/14 14:59:40;;;;;;;17.92;9.30;;;;;;;;;;6126346;23;20018;-80
2022/04/14 15:02:12;;;;;;;10.35;8.88;;;;;;;;;;6126038;23;20022;-78
2022/04/14 15:04:40;;;;;;;11.93;10.82;;;;;;;;;;6162629;23;20337;-76
2022/04/14 15:07:09;;;;;;;13.40;11.07;;;;;;;;;;6152459;23;20030;-77